TimeEST,TemperatureF,Dew PointF,Humidity,Sea Level PressureIn,VisibilityMPH,Wind Direction,Wind SpeedMPH,Gust SpeedMPH,PrecipitationIn,Events,Conditions,WindDirDegrees,DateUTC
12:54 AM,28.9,25.0,85,30.50,7.0,Calm,Calm,-,N/A,,Clear,0,2012-11-18 05:54:00
1:54 AM,30.0,25.0,82,30.50,10.0,Calm,Calm,-,N/A,,Clear,0,2012-11-18 06:54:00
2:54 AM,28.0,24.1,85,30.50,7.0,Calm,Calm,-,N/A,,Clear,0,2012-11-18 07:54:00
3:54 AM,27.0,24.1,89,30.50,3.0,Calm,Calm,-,N/A,,Clear,0,2012-11-18 08:54:00
4:54 AM,27.0,23.0,85,30.50,3.0,Calm,Calm,-,N/A,,Clear,0,2012-11-18 09:54:00
5:54 AM,27.0,24.1,89,30.50,4.0,Calm,Calm,-,N/A,,Clear,0,2012-11-18 10:54:00
6:54 AM,26.1,23.0,88,30.51,3.0,Calm,Calm,-,N/A,,Clear,0,2012-11-18 11:54:00
7:54 AM,26.1,24.1,92,30.52,2.5,Calm,Calm,-,N/A,,Clear,0,2012-11-18 12:54:00
8:07 AM,26.6,24.8,93,30.49,4.0,Calm,Calm,-,N/A,,Clear,0,2012-11-18 13:07:00
8:54 AM,36.0,28.9,76,30.53,9.0,Variable,3.5,-,N/A,,Clear,0,2012-11-18 13:54:00
9:54 AM,41.0,28.9,62,30.53,10.0,NE,3.5,-,N/A,,Clear,40,2012-11-18 14:54:00
10:54 AM,46.9,30.0,52,30.52,10.0,Calm,Calm,-,N/A,,Clear,0,2012-11-18 15:54:00
11:54 AM,51.1,28.9,43,30.49,10.0,Calm,Calm,-,N/A,,Clear,0,2012-11-18 16:54:00
12:54 PM,55.0,28.9,37,30.46,10.0,Calm,Calm,-,N/A,,Clear,0,2012-11-18 17:54:00
1:54 PM,57.0,28.0,33,30.44,10.0,East,4.6,-,N/A,,Clear,80,2012-11-18 18:54:00
2:54 PM,57.9,27.0,31,30.43,10.0,Variable,6.9,-,N/A,,Clear,0,2012-11-18 19:54:00
3:54 PM,57.9,25.0,28,30.42,10.0,Variable,4.6,-,N/A,,Clear,0,2012-11-18 20:54:00
4:54 PM,55.0,25.0,31,30.43,10.0,ENE,3.5,-,N/A,,Clear,60,2012-11-18 21:54:00
5:54 PM,46.0,26.1,46,30.44,10.0,Calm,Calm,-,N/A,,Clear,0,2012-11-18 22:54:00
6:54 PM,36.0,28.0,73,30.45,10.0,Calm,Calm,-,N/A,,Clear,0,2012-11-18 23:54:00
7:54 PM,32.0,26.1,79,30.45,10.0,Calm,Calm,-,N/A,,Clear,0,2012-11-19 00:54:00
8:54 PM,32.0,26.1,79,30.45,10.0,Calm,Calm,-,N/A,,Clear,0,2012-11-19 01:54:00
9:54 PM,28.9,25.0,85,30.44,10.0,Calm,Calm,-,N/A,,Clear,0,2012-11-19 02:54:00
10:54 PM,30.0,26.1,85,30.43,10.0,Calm,Calm,-,N/A,,Clear,0,2012-11-19 03:54:00